Sumner, Nebraska
Current Conditions -  °F | °C
As of 1:55 PM on Monday 22 Dec 2014 (Local Time) from KLXN Reporting Station
Scattered Clouds Scattered Clouds  
Wind Chill: 41°   Ceiling: Unl
Heat Index: 49°   Visibility: 10mi
Dew Point: 29°   Wind: 29mph
Humidity: 46%   Direction: 320°NW
Pressure: 29.51"   Gusts: 36mph
Location:  40.95°N, 99.51°W
Report Text: KLXN 221955Z AUTO 32025G31KT 10SM SCT055 10/M02 A2951 RMK AO2 T00951016
Loading
Personal Weather Stations






























Interactive Weather Map New forecast layout! Learn more

10-Day Weather Forecast

Advertisements
Track Severe Weather on mobile